Time;durP1;ratioP1;P1;durP2;ratioP2;P2;SDS_P1;SDS_P2;PMS_P1;PMS_P2;Temp;Humidity;BMP_temperature;BMP_pressure;BME280_temperature;BME280_humidity;BME280_pressure;Samples;Min_cycle;Max_cycle;Signal;HPM_P1;HPM_P2
2023/09/19 00:13:40;;;;;;;18.20;15.53;;;17.30;99.90;;;;;;4889369;28;20250;-80
2023/09/19 00:38:44;;;;;;;18.33;14.93;;;17.40;99.90;;;;;;4642187;29;20602;-82
2023/09/19 01:29:29;;;;;;;17.80;15.30;;;17.10;99.90;;;;;;4702998;29;20236;-80
2023/09/19 01:55:05;;;;;;;19.23;15.50;;;17.40;99.90;;;;;;4727473;29;20211;-83
2023/09/19 02:20:16;;;;;;;18.33;15.43;;;17.40;99.90;;;;;;4849806;28;20216;-84
2023/09/19 02:40:33;;;;;;;17.50;15.60;;;17.20;99.90;;;;;;4643642;29;20559;-84
2023/09/19 03:11:05;;;;;;;19.00;16.20;;;16.80;99.90;;;;;;4706286;29;20485;-82
2023/09/19 03:36:34;;;;;;;18.30;16.13;;;16.70;99.90;;;;;;4676741;29;20287;-83
2023/09/19 04:01:31;;;;;;;19.87;16.03;;;16.90;99.90;;;;;;4795689;28;20612;-81
2023/09/19 04:21:43;;;;;;;20.93;16.60;;;16.60;99.90;;;;;;4763979;29;20797;-81
2023/09/19 04:47:31;;;;;;;20.50;17.23;;;16.40;99.90;;;;;;4673316;29;20202;-84
2023/09/19 05:17:51;;;;;;;17.70;14.83;;;17.20;99.90;;;;;;4706803;29;20221;-85
2023/09/19 05:42:04;;;;;;;16.80;14.63;;;18.00;99.90;;;;;;4513987;30;21257;-81
2023/09/19 06:33:14;;;;;;;15.10;12.02;;;19.50;99.90;;;;;;4484711;30;20697;-84
2023/09/19 06:58:43;;;;;;;16.95;12.75;;;20.30;99.90;;;;;;4558582;30;20542;-81
2023/09/19 07:03:04;;;;;;;17.25;11.98;;;20.50;99.90;;;;;;4577335;29;21146;-81
2023/09/19 07:29:03;;;;;;;14.07;11.65;;;21.50;99.90;;;;;;4649526;29;20311;-86
2023/09/19 07:59:32;;;;;;;14.57;13.05;;;22.60;93.40;;;;;;4710963;29;20202;-87
2023/09/19 08:24:42;;;;;;;16.85;15.05;;;23.20;90.90;;;;;;4701954;29;20217;-85
2023/09/19 08:45:06;;;;;;;15.77;14.05;;;23.00;91.50;;;;;;4581981;30;20460;-83
2023/09/19 09:30:32;;;;;;;13.55;11.93;;;21.40;99.90;;;;;;4788949;28;21210;-85
2023/09/19 09:50:44;;;;;;;10.93;9.40;;;20.60;99.90;;;;;;4609162;29;20869;-85
2023/09/19 10:11:24;;;;;;;13.83;11.20;;;18.90;99.90;;;;;;4629769;29;20296;-88
2023/09/19 10:56:52;;;;;;;15.55;11.77;;;19.60;99.90;;;;;;4616896;29;21240;-83
2023/09/19 12:03:06;;;;;;;7.90;7.10;;;20.20;99.90;;;;;;4654087;29;20210;-82
2023/09/19 12:59:03;;;;;;;12.80;9.15;;;20.40;99.90;;;;;;4644418;29;20240;-82
2023/09/19 13:29:21;;;;;;;9.15;8.15;;;20.30;99.90;;;;;;4641264;29;20289;-84
2023/09/19 14:15:10;;;;;;;11.13;9.88;;;20.40;99.90;;;;;;4504570;30;20344;-83
2023/09/19 14:40:27;;;;;;;12.38;11.07;;;20.20;99.90;;;;;;4503455;30;20239;-83
2023/09/19 15:11:03;;;;;;;7.75;7.00;;;20.30;99.90;;;;;;4491978;30;20249;-84
2023/09/19 15:15:21;;;;;;;7.82;7.22;;;20.40;99.90;;;;;;4423159;30;20518;-84
2023/09/19 15:40:49;;;;;;;9.07;7.63;;;20.40;99.90;;;;;;4607994;29;20748;-83
2023/09/19 16:31:35;;;;;;;8.60;7.67;;;19.60;99.90;;;;;;4553888;29;20960;-83
2023/09/19 16:52:20;;;;;;;10.47;8.60;;;18.70;99.90;;;;;;4602077;29;20857;-83
2023/09/19 17:17:56;;;;;;;10.83;9.73;;;18.20;99.90;;;;;;4608393;29;20778;-84
2023/09/19 17:58:28;;;;;;;9.90;9.00;;;17.70;99.90;;;;;;4660907;29;20449;-84
2023/09/19 18:18:45;;;;;;;7.00;6.33;;;17.50;99.90;;;;;;4858351;28;21070;-82
2023/09/19 18:48:30;;;;;;;8.07;5.33;;;17.00;99.90;;;;;;4615724;29;20214;-85
2023/09/19 19:14:16;;;;;;;8.43;5.73;;;16.60;99.90;;;;;;4608779;29;20203;-82
2023/09/19 19:44:20;;;;;;;6.30;4.97;;;16.00;99.90;;;;;;4616734;29;20758;-84
2023/09/19 20:20:30;;;;;;;7.77;6.40;;;14.90;99.90;;;;;;4617155;30;20226;-84
2023/09/19 20:50:50;;;;;;;11.13;7.73;;;14.40;99.90;;;;;;4600077;30;20221;-86
2023/09/19 21:16:02;;;;;;;8.83;7.80;;;14.30;99.90;;;;;;4575511;30;20443;-84
2023/09/19 21:36:34;;;;;;;12.23;10.03;;;13.90;99.90;;;;;;4600419;30;20207;-83
2023/09/19 21:56:50;;;;;;;12.07;9.97;;;13.70;99.90;;;;;;4737898;29;20217;-85
2023/09/19 22:27:02;;;;;;;11.23;10.03;;;13.30;99.90;;;;;;4605914;29;20287;-85
2023/09/19 23:23:08;;;;;;;14.03;10.17;;;12.60;99.90;;;;;;4697787;29;20228;-83
